This is the latest recevied weather packets stored in our database for station/object EB5AGF-13. If no packets are shown the sender has not sent any weather packets the latest 10 day(s).
| Time | Temp. | Humidity | Pressure | Rain* | Wind** | Luminosity | Snow |
|---|---|---|---|---|---|---|---|
| 1777458692 | 18.89° C | 81% | 1008.9 hPa | 0 mm | 0.89 m/s, 217° | 131 W/m² | - |
| 1777458392 | 18.89° C | 81% | 1009 hPa | 0 mm | 0.45 m/s, 309° | 116 W/m² | - |
| 1777458092 | 19.44° C | 80% | 1009 hPa | 0 mm | 1.79 m/s, 249° | 119 W/m² | - |
| 1777457792 | 19.44° C | 80% | 1009.1 hPa | 0 mm | 0.89 m/s, 202° | 133 W/m² | - |
| 1777457492 | 19.44° C | 79% | 1009.3 hPa | 0 mm | 1.79 m/s, 223° | 141 W/m² | - |
| 1777457192 | 19.44° C | 79% | 1009 hPa | 0 mm | 0 m/s | 139 W/m² | - |
| 1777456592 | 19.44° C | 79% | 1008.7 hPa | 0 mm | 0.89 m/s, 286° | 121 W/m² | - |
| 1777456287 | 20° C | 78% | 1008.7 hPa | 0 mm | 0.89 m/s, 308° | 96 W/m² | - |
| 1777455982 | 20° C | 78% | 1008.7 hPa | 0 mm | 1.34 m/s, 228° | 98 W/m² | - |
| 1777455680 | 20° C | 78% | 1008.5 hPa | 0 mm | 1.34 m/s, 200° | 100 W/m² | - |
| 1777455375 | 20° C | 77% | 1008.6 hPa | 0 mm | 2.68 m/s, 164° | 107 W/m² | - |
| 1777455071 | 20.56° C | 74% | 1008.6 hPa | 0 mm | 0.89 m/s, 170° | 132 W/m² | - |
| 1777454766 | 20.56° C | 75% | 1008.4 hPa | 0 mm | 0 m/s | 165 W/m² | - |
| 1777454464 | 20.56° C | 75% | 1008.7 hPa | 0 mm | 0.89 m/s, 307° | 198 W/m² | - |
| 1777454159 | 21.11° C | 74% | 1008.5 hPa | 0 mm | 0 m/s | 245 W/m² | - |
| 1777453854 | 20.56° C | 75% | 1008.6 hPa | 0 mm | 0 m/s | 214 W/m² | - |
| 1777453551 | 20.56° C | 76% | 1008.5 hPa | 0 mm | 0.45 m/s, 1° | 212 W/m² | - |
| 1777453247 | 20.56° C | 75% | 1008.5 hPa | 0 mm | 0.89 m/s, 21° | 184 W/m² | - |
| 1777452943 | 20.56° C | 76% | 1008.5 hPa | 0 mm | 0.45 m/s, 8° | 198 W/m² | - |
| 1777452639 | 20° C | 76% | 1008.4 hPa | 0 mm | 0.89 m/s, 69° | 185 W/m² | - |
| 1777452333 | 20.56° C | 76% | 1008.5 hPa | 0 mm | 0.45 m/s, 17° | 243 W/m² | - |
| 1777452032 | 20° C | 77% | 1008.8 hPa | 0 mm | 0.45 m/s, 139° | 391 W/m² | - |
| 1777451733 | 20° C | 78% | 1008.5 hPa | 0 mm | 0.45 m/s, 206° | 206 W/m² | - |
| 1777451432 | 20° C | 78% | 1008.7 hPa | 0 mm | 0 m/s | 184 W/m² | - |
| 1777451132 | 20° C | 77% | 1008.4 hPa | 0 mm | 0 m/s | 179 W/m² | - |
* Rain latest hour (hover to see other rain measurements)
** Current wind speed in m/s (hover to see current wind gust speed)